Time;durP1;ratioP1;P1;durP2;ratioP2;P2;SDS_P1;SDS_P2;PMS_P1;PMS_P2;Temp;Humidity;BMP_temperature;BMP_pressure;BME280_temperature;BME280_humidity;BME280_pressure;Samples;Min_cycle;Max_cycle;Signal;HPM_P1;HPM_P2
2023/10/24 00:00:43;;;;;;;1.83;1.58;;;;;;;-145.63;58.72;39352.81;5042782;28;20032;-67
2023/10/24 00:03:09;;;;;;;1.70;1.60;;;;;;;-145.63;58.92;39341.06;5042726;28;20080;-68
2023/10/24 00:05:34;;;;;;;1.75;1.48;;;;;;;-145.63;59.43;39405.59;5042690;28;20026;-67
2023/10/24 00:08:00;;;;;;;1.63;1.52;;;;;;;-145.63;59.24;39346.94;5038918;28;20298;-67
2023/10/24 00:10:25;;;;;;;1.90;1.80;;;;;;;-145.63;58.87;39380.19;5037042;28;20025;-67
2023/10/24 00:12:51;;;;;;;2.40;2.20;;;;;;;-145.63;59.37;39366.50;5042621;28;20333;-66
2023/10/24 00:15:17;;;;;;;2.75;2.08;;;;;;;-145.63;59.29;39348.88;5023154;28;20036;-65
2023/10/24 00:17:42;;;;;;;2.00;1.90;;;;;;;-145.63;58.43;39368.44;5041383;28;20025;-67
2023/10/24 00:20:09;;;;;;;2.15;1.95;;;;;;;-145.63;58.72;39388.00;5042566;28;20049;-66
2023/10/24 00:22:35;;;;;;;2.22;1.88;;;;;;;-145.63;58.81;39370.41;5042338;28;20044;-66
2023/10/24 00:25:01;;;;;;;2.08;1.90;;;;;;;-145.63;58.92;39378.22;5042400;28;20322;-66
2023/10/24 00:27:26;;;;;;;2.00;1.90;;;;;;;-145.63;59.18;39360.63;5042576;28;20107;-67
2023/10/24 00:29:52;;;;;;;1.90;1.80;;;;;;;-145.63;59.06;39389.97;5041117;28;20316;-66
2023/10/24 00:32:17;;;;;;;2.15;1.98;;;;;;;-145.63;59.53;39354.75;5042563;28;20030;-66
2023/10/24 00:34:43;;;;;;;2.50;2.30;;;;;;;-145.63;59.55;39366.50;5042159;28;20026;-66
2023/10/24 00:37:09;;;;;;;2.10;2.00;;;;;;;-145.63;59.00;39378.22;5030975;28;20182;-65
2023/10/24 00:39:34;;;;;;;2.47;2.28;;;;;;;-145.63;59.11;39348.88;5042408;28;20021;-66
2023/10/24 00:42:00;;;;;;;2.22;2.13;;;;;;;-145.63;58.95;39388.00;5042327;28;20037;-66
2023/10/24 00:44:27;;;;;;;2.72;2.53;;;;;;;-145.63;59.46;39366.50;5041409;28;20025;-67
2023/10/24 00:46:53;;;;;;;2.92;2.72;;;;;;;-145.63;59.90;39358.66;5042361;28;20057;-66
2023/10/24 00:49:19;;;;;;;3.30;3.00;;;;;;;-145.63;59.68;39352.81;5042367;28;20221;-65
2023/10/24 00:51:45;;;;;;;2.67;2.47;;;;;;;-145.63;59.31;39360.63;5042324;28;20080;-66
2023/10/24 00:54:11;;;;;;;2.95;2.75;;;;;;;-145.63;60.00;39626.63;5042861;28;20068;-66
2023/10/24 00:56:38;;;;;;;3.80;3.50;;;;;;;-145.63;59.49;39364.53;5042369;28;20040;-66
2023/10/24 00:59:04;;;;;;;3.70;3.40;;;;;;;-145.63;59.49;39374.31;5042214;28;20047;-65
2023/10/24 01:01:30;;;;;;;3.20;3.00;;;;;;;-145.63;58.95;39374.31;5045101;28;20026;-65
2023/10/24 01:03:58;;;;;;;3.80;3.50;;;;;;;-145.63;59.57;39413.44;5045751;28;20065;-65
2023/10/24 01:06:24;;;;;;;3.72;3.42;;;;;;;-145.63;59.64;39380.19;5045895;28;20037;-65
2023/10/24 01:08:50;;;;;;;3.75;3.45;;;;;;;-145.63;60.07;39354.75;5045696;28;20180;-66
2023/10/24 01:11:16;;;;;;;3.90;3.60;;;;;;;-145.63;60.05;39384.09;5045040;28;20029;-67
2023/10/24 01:13:42;;;;;;;4.32;3.92;;;;;;;-145.63;59.51;39386.06;5045688;28;20025;-66
2023/10/24 01:16:08;;;;;;;4.72;4.30;;;;;;;-145.63;60.14;39378.22;5045900;28;20017;-67
2023/10/24 01:18:33;;;;;;;4.43;4.13;;;;;;;-145.63;59.40;39374.31;5045625;28;20025;-67
2023/10/24 01:20:59;;;;;;;5.10;4.70;;;;;;;-145.63;59.65;39364.53;5036427;28;20064;-66
2023/10/24 01:23:31;;;;;;;5.28;4.88;;;;;;;-145.63;59.17;39374.31;5037878;28;20025;-67
2023/10/24 01:25:57;;;;;;;;;;;;;;;-145.63;59.26;39368.44;5045801;28;20048;-67
2023/10/24 01:28:25;;;;;;;5.07;4.68;;;;;;;-145.63;59.22;39444.72;5045563;28;19972;-66
2023/10/24 01:30:51;;;;;;;5.15;4.75;;;;;;;-145.63;59.36;39391.91;5045306;28;20037;-66
2023/10/24 01:33:16;;;;;;;4.88;4.47;;;;;;;-145.63;58.98;39380.19;5045242;28;20056;-66
2023/10/24 01:35:42;;;;;;;5.03;4.60;;;;;;;-145.63;59.29;39376.28;5043057;28;20052;-65
2023/10/24 01:38:08;;;;;;;5.15;4.65;;;;;;;-145.63;59.37;39360.63;5035105;28;20053;-67
2023/10/24 01:40:33;;;;;;;5.47;4.97;;;;;;;-145.63;59.09;39341.06;5043786;28;20022;-67
2023/10/24 01:42:59;;;;;;;5.57;5.07;;;;;;;-145.63;59.56;39372.34;5044926;28;20332;-67
2023/10/24 01:45:25;;;;;;;5.10;4.70;;;;;;;-145.63;59.87;39391.91;5045110;28;20032;-67
2023/10/24 01:47:51;;;;;;;5.63;5.13;;;;;;;-145.63;60.05;39372.34;5045213;28;20032;-67
2023/10/24 01:50:16;;;;;;;5.30;4.90;;;;;;;-145.63;59.76;39368.44;5044731;28;20029;-67
2023/10/24 01:52:43;;;;;;;5.55;5.03;;;;;;;-145.63;59.76;39364.53;5044661;28;20139;-66
2023/10/24 01:55:24;;;;;;;6.38;5.78;;;;;;;-145.63;59.53;39380.19;5022344;28;20045;-66
2023/10/24 01:57:50;;;;;;;5.90;5.40;;;;;;;-145.63;59.50;39388.00;5044761;28;20399;-66
2023/10/24 02:00:16;;;;;;;6.38;5.40;;;;;;;-145.63;59.85;39354.75;5044561;28;20022;-67
2023/10/24 02:02:41;;;;;;;6.53;6.00;;;;;;;-145.63;60.27;39352.81;5044865;28;20096;-66
2023/10/24 02:05:08;;;;;;;6.07;5.57;;;;;;;-145.63;60.31;39366.50;5044562;28;20249;-68
2023/10/24 02:07:33;;;;;;;7.00;6.22;;;;;;;-145.63;59.89;39391.91;5044690;28;20206;-66
2023/10/24 02:09:59;;;;;;;7.18;6.47;;;;;;;-145.63;59.43;39368.44;5043822;28;20040;-67
2023/10/24 02:12:25;;;;;;;9.10;7.05;;;;;;;-145.63;60.03;39389.97;5043010;28;20025;-66
2023/10/24 02:14:53;;;;;;;10.68;9.57;;;;;;;-145.63;59.57;39286.31;5044559;28;20035;-66
2023/10/24 02:17:19;;;;;;;10.68;9.57;;;;;;;-145.63;59.71;39403.66;5044078;28;20033;-69
2023/10/24 02:19:45;;;;;;;11.32;9.85;;;;;;;-145.63;60.04;39366.50;5044162;28;20024;-66
2023/10/24 02:22:11;;;;;;;12.82;10.73;;;;;;;-145.63;60.11;39389.97;5044424;28;20048;-66
2023/10/24 02:24:36;;;;;;;12.65;10.48;;;;;;;-145.63;59.72;39364.53;5044560;28;20025;-67
2023/10/24 02:27:02;;;;;;;12.93;11.43;;;;;;;-145.63;60.28;39374.31;5043010;28;20297;-66
2023/10/24 02:29:33;;;;;;;12.65;11.25;;;;;;;-145.63;60.48;39376.28;5043650;28;20081;-66
2023/10/24 02:31:59;;;;;;;12.43;11.13;;;;;;;-145.63;60.25;39368.44;5043824;28;20037;-66
2023/10/24 02:34:25;;;;;;;12.75;11.13;;;;;;;-145.63;60.38;39376.28;5044431;28;20053;-66
2023/10/24 02:36:51;;;;;;;12.88;11.38;;;;;;;-145.63;59.84;39380.19;5044107;28;20039;-66
2023/10/24 02:39:18;;;;;;;13.38;11.60;;;;;;;-145.63;60.07;39364.53;5044142;28;20330;-67
2023/10/24 02:41:44;;;;;;;12.30;10.70;;;;;;;-145.63;60.17;39386.06;5044069;28;20213;-66
2023/10/24 02:44:09;;;;;;;12.15;10.40;;;;;;;-145.63;59.75;39360.63;5044163;28;20047;-68
2023/10/24 02:46:35;;;;;;;10.68;9.57;;;;;;;-145.63;59.40;39395.84;5044054;28;20021;-68
2023/10/24 02:49:01;;;;;;;11.45;10.25;;;;;;;-145.63;59.84;39413.44;5043919;28;20310;-67
2023/10/24 02:51:27;;;;;;;11.65;10.50;;;;;;;-145.63;59.51;39378.22;5043710;28;20222;-67
2023/10/24 02:53:52;;;;;;;11.43;10.02;;;;;;;-145.63;59.16;39386.06;5042948;28;20345;-67
2023/10/24 02:56:18;;;;;;;11.30;10.20;;;;;;;-145.63;59.07;39354.75;5036928;28;20029;-67
2023/10/24 02:58:43;;;;;;;11.55;10.25;;;;;;;-145.63;59.17;39393.88;5029745;28;20052;-65
2023/10/24 03:01:09;;;;;;;12.55;10.88;;;;;;;-145.63;59.36;39391.91;5042565;28;20024;-65
2023/10/24 03:03:35;;;;;;;11.10;9.95;;;;;;;-145.63;59.49;39366.50;5044046;28;20053;-65
2023/10/24 03:06:01;;;;;;;11.23;10.02;;;;;;;-145.63;59.68;39397.78;5043449;28;20025;-65
2023/10/24 03:08:27;;;;;;;11.88;10.48;;;;;;;-145.63;59.55;39374.31;5043455;28;20218;-67
2023/10/24 03:10:52;;;;;;;11.85;10.15;;;;;;;-145.63;59.55;39382.13;5042811;28;20112;-66
2023/10/24 03:13:18;;;;;;;10.35;9.25;;;;;;;-145.63;58.59;39368.44;5043594;28;20221;-65
2023/10/24 03:15:44;;;;;;;11.57;9.40;;;;;;;-145.63;58.28;39411.47;5043192;28;20033;-66
2023/10/24 03:18:09;;;;;;;10.35;9.20;;;;;;;-145.63;58.63;39354.75;5043010;28;20029;-66
2023/10/24 03:20:40;;;;;;;10.00;8.90;;;;;;;-145.63;57.53;39366.50;5043138;28;20213;-67
2023/10/24 03:23:05;;;;;;;9.98;9.07;;;;;;;-145.63;57.77;39356.72;5042749;28;20317;-66
2023/10/24 03:25:31;;;;;;;11.23;9.57;;;;;;;-145.63;58.17;39376.28;5043249;28;20048;-66
2023/10/24 03:27:56;;;;;;;11.38;8.85;;;;;;;-145.63;57.37;39368.44;5042870;28;20044;-66
2023/10/24 03:30:22;;;;;;;10.57;9.48;;;;;;;-145.63;57.88;39370.41;5042743;28;20037;-67
2023/10/24 03:32:48;;;;;;;10.80;9.73;;;;;;;-145.63;58.36;39403.66;5042022;28;20063;-65
2023/10/24 03:35:16;;;;;;;13.07;10.60;;;;;;;-145.63;57.72;39368.44;5043074;28;20093;-66
2023/10/24 03:37:42;;;;;;;10.75;9.73;;;;;;;-145.63;58.03;39485.78;5043038;28;20064;-66
2023/10/24 03:40:11;;;;;;;12.20;10.98;;;;;;;-145.63;57.65;39372.34;5043219;28;20025;-65
2023/10/24 03:42:37;;;;;;;10.95;9.68;;;;;;;-145.63;57.25;39366.50;5042849;28;20067;-65
2023/10/24 03:45:03;;;;;;;10.13;9.13;;;;;;;-145.63;57.03;39382.13;5043106;28;20025;-65
2023/10/24 03:47:31;;;;;;;10.93;9.82;;;;;;;-145.63;57.22;39352.81;5043364;28;20242;-64
2023/10/24 03:49:57;;;;;;;11.25;10.13;;;;;;;-145.63;56.95;39376.28;5042790;28;20025;-67
2023/10/24 03:52:22;;;;;;;9.43;8.52;;;;;;;-145.63;56.39;39356.72;5042845;28;20061;-67
2023/10/24 03:54:48;;;;;;;10.48;9.40;;;;;;;-145.63;56.84;39384.09;5043004;28;20241;-67
2023/10/24 03:57:14;;;;;;;10.88;9.77;;;;;;;-145.63;55.96;39362.59;5042747;28;20117;-66
2023/10/24 03:59:39;;;;;;;11.05;9.95;;;;;;;-145.63;56.59;39393.88;5042680;28;20032;-67
2023/10/24 04:02:05;;;;;;;11.38;9.57;;;;;;;-145.63;56.65;39399.75;5042205;28;20055;-67
2023/10/24 04:04:31;;;;;;;11.18;9.43;;;;;;;-145.63;55.71;39376.28;5042755;28;20037;-67
2023/10/24 04:06:56;;;;;;;10.55;9.45;;;;;;;-145.63;56.38;39350.84;5042556;28;20033;-66
2023/10/24 04:09:22;;;;;;;11.00;9.77;;;;;;;-145.63;56.55;39391.91;5041838;28;20017;-67
2023/10/24 04:11:48;;;;;;;11.38;10.18;;;;;;;-145.63;57.16;39380.19;5042212;28;20041;-65
2023/10/24 04:14:13;;;;;;;12.45;11.25;;;;;;;-145.63;56.67;39403.66;5042578;28;20425;-66
2023/10/24 04:16:39;;;;;;;11.85;10.05;;;;;;;-145.63;56.63;39389.97;5042167;28;20316;-66
2023/10/24 04:19:05;;;;;;;14.52;10.25;;;;;;;-145.63;57.25;39372.34;5042785;28;20079;-66
2023/10/24 04:21:30;;;;;;;11.15;10.02;;;;;;;-145.63;57.09;39362.59;5042326;28;20067;-65
2023/10/24 04:23:56;;;;;;;11.82;10.43;;;;;;;-145.63;56.86;39399.75;5042226;28;20105;-65
2023/10/24 04:26:22;;;;;;;11.25;10.18;;;;;;;-145.63;57.27;39380.19;5042444;28;20025;-65
2023/10/24 04:28:48;;;;;;;12.48;11.18;;;;;;;-145.63;57.51;39372.34;5042182;28;20025;-65
2023/10/24 04:31:13;;;;;;;12.73;11.25;;;;;;;-145.63;57.35;39372.34;5041851;28;20033;-65
2023/10/24 04:33:40;;;;;;;13.70;12.00;;;;;;;-145.63;57.07;39382.13;5042109;28;20034;-66
2023/10/24 04:36:10;;;;;;;13.15;11.77;;;;;;;-145.63;56.95;39417.34;5043936;28;20041;-65
2023/10/24 04:38:36;;;;;;;14.27;11.75;;;;;;;-145.63;57.15;39364.53;5046004;28;20033;-66
2023/10/24 04:41:02;;;;;;;14.73;13.23;;;;;;;-145.63;57.85;39376.28;5046021;28;20026;-65
2023/10/24 04:43:28;;;;;;;14.40;12.90;;;;;;;-145.63;57.23;39368.44;5046200;28;20037;-66
2023/10/24 04:45:53;;;;;;;14.45;12.95;;;;;;;-145.63;57.70;39382.13;5045399;28;20030;-66
2023/10/24 04:48:19;;;;;;;15.38;13.52;;;;;;;-145.63;57.47;39333.25;5045779;28;20029;-68
2023/10/24 04:50:44;;;;;;;15.93;14.32;;;;;;;-145.63;57.70;39382.13;5045430;28;20071;-67
2023/10/24 04:53:10;;;;;;;15.32;13.73;;;;;;;-145.63;58.02;39368.44;5045947;28;20041;-67
2023/10/24 04:55:36;;;;;;;15.23;13.18;;;;;;;-145.63;58.22;39403.66;5045733;28;20034;-67
2023/10/24 04:58:02;;;;;;;14.38;12.88;;;;;;;-145.63;57.70;39395.84;5046060;28;20048;-67
2023/10/24 05:00:28;;;;;;;15.88;14.18;;;;;;;-145.63;57.87;39354.75;5046316;28;20026;-67
2023/10/24 05:02:53;;;;;;;16.35;14.63;;;;;;;-145.63;57.98;39419.31;5054495;28;20021;-66
2023/10/24 05:05:19;;;;;;;16.95;14.68;;;;;;;-145.63;57.65;39378.22;5036730;28;20022;-67
2023/10/24 05:07:45;;;;;;;17.25;14.75;;;;;;;-145.63;57.87;39403.66;5043588;28;20314;-68
2023/10/24 05:10:11;;;;;;;16.38;14.05;;;;;;;-145.63;57.58;39376.28;5045192;28;20021;-67
2023/10/24 05:12:37;;;;;;;16.20;14.50;;;;;;;-145.63;58.06;39364.53;5044813;28;20072;-66
2023/10/24 05:15:03;;;;;;;17.30;15.13;;;;;;;-145.63;58.11;39368.44;5044909;28;20052;-65
2023/10/24 05:17:32;;;;;;;17.35;14.60;;;;;;;-145.63;58.17;39362.59;5044264;28;20087;-67
2023/10/24 05:20:07;;;;;;;17.27;14.77;;;;;;;-145.63;57.74;39368.44;5045390;28;20033;-66
2023/10/24 05:22:35;;;;;;;17.13;15.30;;;;;;;-145.63;57.86;39356.72;5043974;28;20052;-66
2023/10/24 05:25:01;;;;;;;18.35;15.32;;;;;;;-145.63;57.65;39388.00;5025847;28;20026;-67
2023/10/24 05:27:31;;;;;;;20.42;16.05;;;;;;;-145.63;58.13;39389.97;5043944;28;20033;-67
2023/10/24 05:29:57;;;;;;;18.50;14.73;;;;;;;-145.63;57.68;39368.44;5044173;28;20056;-66
2023/10/24 05:32:23;;;;;;;18.00;15.32;;;;;;;-145.63;57.64;39401.69;5044777;28;20469;-67
2023/10/24 05:34:48;;;;;;;17.77;15.68;;;;;;;-145.63;58.01;39362.59;5044569;28;20037;-66
2023/10/24 05:37:14;;;;;;;19.25;15.98;;;;;;;-145.63;58.30;39388.00;5045135;28;20036;-68
2023/10/24 05:39:39;;;;;;;17.77;15.55;;;;;;;-145.63;58.50;39380.19;5044303;28;20033;-66
2023/10/24 05:42:05;;;;;;;18.50;15.52;;;;;;;-145.63;58.05;39382.13;5045148;28;20038;-67
2023/10/24 05:44:31;;;;;;;20.02;15.88;;;;;;;-145.63;58.16;39388.00;5044423;28;20071;-68
2023/10/24 05:46:56;;;;;;;18.00;15.55;;;;;;;-145.63;58.01;39411.47;5044384;28;20091;-67
2023/10/24 05:49:23;;;;;;;21.73;16.95;;;;;;;-145.63;58.33;39380.19;5044943;28;20032;-67
2023/10/24 05:51:49;;;;;;;18.55;15.82;;;;;;;-145.63;57.82;39395.84;5044865;28;20083;-69
2023/10/24 05:54:14;;;;;;;19.63;16.50;;;;;;;-145.63;58.02;39409.53;5044988;28;20359;-67
2023/10/24 05:56:40;;;;;;;19.40;15.85;;;;;;;-145.63;57.86;39356.72;5044195;28;20025;-66
2023/10/24 05:59:06;;;;;;;18.95;15.95;;;;;;;-145.63;57.87;39374.31;5043959;28;20083;-66
2023/10/24 06:01:31;;;;;;;19.27;15.65;;;;;;;-145.63;58.44;39399.75;5043309;28;20055;-67
2023/10/24 06:03:57;;;;;;;20.40;16.10;;;;;;;-145.63;58.48;39389.97;5042846;28;20041;-67
2023/10/24 06:06:23;;;;;;;22.23;15.35;;;;;;;-145.63;57.95;39389.97;5041457;28;20043;-67
2023/10/24 06:08:48;;;;;;;19.73;14.95;;;;;;;-145.63;57.86;39393.88;5042670;28;20041;-67
2023/10/24 06:11:15;;;;;;;19.08;15.40;;;;;;;-145.63;57.85;39380.19;5040194;28;20052;-67
2023/10/24 06:13:42;;;;;;;19.23;15.25;;;;;;;-145.63;58.53;39389.97;5043646;28;20241;-67
2023/10/24 06:16:17;;;;;;;20.55;15.35;;;;;;;-145.63;58.36;39370.41;5043272;28;20318;-68
2023/10/24 06:18:42;;;;;;;20.77;17.63;;;;;;;-145.63;58.72;39384.09;5037936;28;20217;-67
2023/10/24 06:21:10;;;;;;;20.00;14.73;;;;;;;-145.63;58.17;39380.19;5043305;28;20142;-67
2023/10/24 06:23:37;;;;;;;20.38;15.23;;;;;;;-145.63;58.78;39399.75;5044009;28;20252;-66
2023/10/24 06:26:03;;;;;;;18.23;14.52;;;;;;;-145.63;58.41;39417.34;5042293;28;20033;-68
2023/10/24 06:28:29;;;;;;;16.67;14.55;;;;;;;-145.63;59.05;39376.28;5043481;28;20056;-68
2023/10/24 06:30:59;;;;;;;19.60;15.00;;;;;;;-145.63;58.57;39403.66;5043480;28;20187;-67
2023/10/24 06:33:26;;;;;;;18.60;15.63;;;;;;;-145.63;58.41;39386.06;5044040;28;20290;-67
2023/10/24 06:35:53;;;;;;;20.02;15.30;;;;;;;-145.63;58.51;39380.19;5043452;28;20322;-67
2023/10/24 06:38:18;;;;;;;19.80;15.38;;;;;;;-145.63;58.36;39372.34;5044083;28;20037;-67
2023/10/24 06:40:47;;;;;;;20.40;15.88;;;;;;;-145.63;58.44;39411.47;5042790;28;20372;-67
2023/10/24 06:43:13;;;;;;;19.63;15.63;;;;;;;-145.63;58.25;39384.09;5043564;28;20342;-67
2023/10/24 06:45:39;;;;;;;21.60;16.00;;;;;;;-145.63;58.49;39407.56;5042059;28;20028;-67
2023/10/24 06:48:06;;;;;;;20.23;16.33;;;;;;;-145.63;58.53;39388.00;5041120;28;20029;-66
2023/10/24 06:53:08;;;;;;;18.73;15.07;;;;;;;-145.63;58.55;39391.91;5150403;22;20050;-72
2023/10/24 06:55:34;;;;;;;21.08;16.15;;;;;;;-145.63;58.39;39393.88;4984107;28;20031;-69
2023/10/24 06:58:01;;;;;;;20.98;15.65;;;;;;;-145.63;58.19;39395.84;4976243;28;20033;-69
2023/10/24 07:00:26;;;;;;;18.23;14.48;;;;;;;-145.63;58.30;39364.53;4978513;28;20121;-69
2023/10/24 07:02:52;;;;;;;17.80;14.40;;;;;;;-145.63;58.03;39364.53;4976032;28;20023;-69
2023/10/24 07:05:19;;;;;;;18.73;14.50;;;;;;;-145.63;58.41;39386.06;4977135;28;20062;-69
2023/10/24 07:07:44;;;;;;;19.38;14.57;;;;;;;-145.63;58.71;39395.84;4975454;28;20386;-72
2023/10/24 07:10:10;;;;;;;20.88;15.68;;;;;;;-145.63;58.67;39374.31;4982362;28;20027;-72
2023/10/24 07:12:36;;;;;;;20.20;15.68;;;;;;;-145.63;57.70;39366.50;4980070;28;20027;-72
2023/10/24 07:15:03;;;;;;;22.52;15.02;;;;;;;-145.63;58.17;39364.53;4982200;28;20078;-70
2023/10/24 07:17:31;;;;;;;17.02;14.05;;;;;;;-145.63;58.17;39380.19;4989310;28;20030;-73
2023/10/24 07:19:58;;;;;;;16.85;14.38;;;;;;;-145.63;57.77;39368.44;4984477;28;20031;-71
2023/10/24 07:22:24;;;;;;;16.88;13.13;;;;;;;-145.63;57.77;39415.38;4983689;28;20023;-71
2023/10/24 07:24:50;;;;;;;15.93;14.18;;;;;;;-145.63;57.54;39384.09;4978425;28;20085;-68
2023/10/24 07:27:15;;;;;;;18.08;13.88;;;;;;;-145.63;58.08;39401.69;4976469;28;20034;-73
2023/10/24 07:29:41;;;;;;;17.33;13.68;;;;;;;-145.63;57.52;39376.28;4976855;28;20038;-72
2023/10/24 07:32:07;;;;;;;16.17;12.65;;;;;;;-145.63;56.77;39366.50;4978902;28;20038;-70
2023/10/24 07:34:33;;;;;;;16.75;13.02;;;;;;;-145.63;57.54;39352.81;4983027;28;20026;-69
2023/10/24 07:36:59;;;;;;;15.23;12.70;;;;;;;-145.63;57.45;39339.13;4997065;28;20084;-70
2023/10/24 07:39:25;;;;;;;15.13;12.07;;;;;;;-145.63;57.63;39376.28;4986807;28;20031;-69
2023/10/24 07:41:51;;;;;;;14.02;11.43;;;;;;;-145.63;57.11;39376.28;4983594;28;20302;-70
2023/10/24 07:44:17;;;;;;;11.85;10.65;;;;;;;-145.63;56.35;39380.19;4984215;28;20106;-69
2023/10/24 07:46:43;;;;;;;15.48;11.50;;;;;;;-145.63;56.33;39370.41;4982646;28;20206;-68
2023/10/24 07:49:10;;;;;;;13.63;10.77;;;;;;;-145.63;56.12;39372.34;4983746;28;20026;-69
2023/10/24 07:51:35;;;;;;;11.30;10.10;;;;;;;-145.63;55.82;39501.44;4983686;28;20030;-71
2023/10/24 07:54:01;;;;;;;12.40;9.27;;;;;;;-145.63;54.60;39376.28;4981098;28;20368;-69
2023/10/24 07:56:27;;;;;;;11.93;9.82;;;;;;;-145.63;54.60;39362.59;4977808;28;20254;-69
2023/10/24 07:58:52;;;;;;;10.38;8.57;;;;;;;-145.63;53.84;39170.91;4982737;28;20023;-71
2023/10/24 08:01:18;;;;;;;13.85;9.35;;;;;;;-145.63;55.17;39321.50;4971486;28;20426;-70
2023/10/24 08:03:44;;;;;;;12.05;9.73;;;;;;;-145.63;55.29;39319.56;4972957;28;20027;-69
2023/10/24 08:06:12;;;;;;;10.65;8.25;;;;;;;-145.63;54.60;39325.41;4975683;28;20023;-69
2023/10/24 08:08:43;;;;;;;9.52;8.02;;;;;;;-145.63;53.48;39331.28;4972447;28;20027;-68
2023/10/24 08:11:09;;;;;;;9.93;7.82;;;;;;;-145.63;52.74;39346.94;4985574;28;20330;-69
2023/10/24 08:13:35;;;;;;;7.85;7.05;;;;;;;-145.63;52.23;39337.16;4988056;28;20299;-71
2023/10/24 08:16:00;;;;;;;9.02;7.53;;;;;;;-145.63;53.15;39391.91;4984259;28;20086;-73
2023/10/24 08:18:26;;;;;;;9.68;8.18;;;;;;;-145.63;53.15;39352.81;4985920;28;20031;-74
2023/10/24 08:20:53;;;;;;;8.55;7.28;;;;;;;-145.63;52.18;39388.00;4979897;28;20042;-72
2023/10/24 08:23:19;;;;;;;8.85;7.88;;;;;;;-145.63;53.14;39391.91;4986125;28;20314;-72
2023/10/24 08:25:44;;;;;;;9.48;8.02;;;;;;;-145.63;52.65;39370.41;4985160;28;20042;-73
2023/10/24 08:28:10;;;;;;;9.75;7.68;;;;;;;-145.63;53.04;39370.41;4987409;28;20031;-72
2023/10/24 08:30:36;;;;;;;11.30;7.60;;;;;;;-145.63;52.81;39391.91;4986289;28;20026;-72
2023/10/24 08:33:01;;;;;;;8.60;7.57;;;;;;;-145.63;52.62;39431.03;4985504;28;20030;-74
2023/10/24 08:35:27;;;;;;;8.52;7.63;;;;;;;-145.63;53.30;39368.44;4987744;28;20034;-73
2023/10/24 08:37:54;;;;;;;9.95;8.15;;;;;;;-145.63;52.63;39376.28;4985068;28;20034;-74
2023/10/24 08:40:20;;;;;;;10.70;8.05;;;;;;;-145.63;52.45;39350.84;4983527;28;20023;-76
2023/10/24 08:42:46;;;;;;;8.85;7.95;;;;;;;-145.63;52.88;39405.59;4979176;28;20039;-74
2023/10/24 08:45:16;;;;;;;8.85;7.50;;;;;;;-145.63;52.65;39380.19;4981431;28;20340;-74
2023/10/24 08:47:43;;;;;;;8.85;7.15;;;;;;;-145.63;51.95;39356.72;4977386;28;20026;-74
2023/10/24 08:50:09;;;;;;;8.63;7.80;;;;;;;-145.63;52.54;39376.28;4978765;28;20034;-71
2023/10/24 08:52:35;;;;;;;9.75;7.80;;;;;;;-145.63;52.74;39366.50;4992637;28;20040;-73
2023/10/24 08:55:05;;;;;;;9.57;8.57;;;;;;;-145.63;53.04;39370.41;4994393;28;20026;-74
2023/10/24 08:57:40;;;;;;;9.80;8.20;;;;;;;-145.63;52.65;39372.34;5000476;28;20122;-73
2023/10/24 09:00:08;;;;;;;9.82;8.48;;;;;;;-145.63;52.31;39444.72;4996242;28;20030;-72
2023/10/24 09:02:35;;;;;;;10.07;7.65;;;;;;;-145.63;53.21;39362.59;4999938;28;20202;-73
2023/10/24 09:05:01;;;;;;;11.02;9.45;;;;;;;-145.63;53.07;39386.06;4997575;28;20026;-73
2023/10/24 09:07:29;;;;;;;11.30;8.88;;;;;;;-145.63;52.92;39192.44;5001339;28;20097;-71
2023/10/24 09:09:55;;;;;;;10.15;8.48;;;;;;;-145.63;52.58;39380.19;5004974;28;20369;-74
2023/10/24 09:12:21;;;;;;;11.13;8.50;;;;;;;-145.63;52.69;39405.59;5006272;28;20258;-72
2023/10/24 09:14:48;;;;;;;11.27;8.27;;;;;;;-145.63;52.07;39372.34;5006410;28;20290;-71
2023/10/24 09:17:17;;;;;;;12.00;8.75;;;;;;;-145.63;52.83;39380.19;5015425;28;20029;-71
2023/10/24 09:19:43;;;;;;;10.45;8.30;;;;;;;-145.63;52.34;39423.22;5006118;28;20018;-72
2023/10/24 09:22:14;;;;;;;10.68;8.55;;;;;;;-145.63;53.06;39393.88;5003139;28;20134;-71
2023/10/24 09:24:47;;;;;;;12.70;9.18;;;;;;;-145.63;52.44;39397.78;4996886;28;20030;-72
2023/10/24 09:27:17;;;;;;;11.82;8.52;;;;;;;-145.63;52.20;39376.28;5001482;28;20026;-70
2023/10/24 09:29:43;;;;;;;10.75;8.38;;;;;;;-145.63;51.74;39364.53;4982708;28;20055;-70
2023/10/24 09:32:15;;;;;;;9.52;8.52;;;;;;;-145.63;51.83;39391.91;4998789;28;20098;-72
2023/10/24 09:34:42;;;;;;;9.88;8.48;;;;;;;-145.63;51.38;39407.56;4997439;28;20022;-71
2023/10/24 09:37:10;;;;;;;12.00;8.60;;;;;;;-145.63;51.61;39358.66;5008378;28;20034;-71
2023/10/24 09:39:54;;;;;;;10.85;9.07;;;;;;;-145.63;51.29;39389.97;4998889;28;20037;-71
2023/10/24 09:42:24;;;;;;;15.80;12.30;;;;;;;-145.63;51.89;39372.34;4997001;28;20027;-72
2023/10/24 09:44:53;;;;;;;12.43;10.73;;;;;;;-145.63;51.25;39356.72;4997450;28;20026;-71
2023/10/24 09:47:19;;;;;;;11.45;8.73;;;;;;;-145.63;51.00;39344.97;4979286;28;20205;-70
2023/10/24 09:49:46;;;;;;;12.20;8.55;;;;;;;-145.63;50.45;39172.88;4986657;28;20164;-70
2023/10/24 09:52:12;;;;;;;9.65;7.50;;;;;;;-145.63;50.14;39323.47;5005390;28;20043;-71
2023/10/24 09:54:39;;;;;;;12.05;8.57;;;;;;;-145.63;50.31;39321.50;4983064;28;20101;-71
2023/10/24 09:57:05;;;;;;;9.23;7.43;;;;;;;-145.63;49.84;39352.81;4983142;28;20150;-72
2023/10/24 09:59:32;;;;;;;9.98;7.18;;;;;;;-145.63;49.46;39321.50;4997119;28;20081;-70
2023/10/24 10:01:59;;;;;;;9.88;7.97;;;;;;;-145.63;49.65;39354.75;4995931;28;20109;-69
2023/10/24 10:04:25;;;;;;;12.10;8.15;;;;;;;-145.63;49.80;39360.63;4997452;28;20034;-69
2023/10/24 10:06:53;;;;;;;11.30;8.38;;;;;;;-145.63;49.04;39356.72;4995432;28;20183;-71
2023/10/24 10:09:19;;;;;;;9.43;7.32;;;;;;;-145.63;48.46;39352.81;4997217;28;20022;-70
2023/10/24 10:11:47;;;;;;;8.70;6.72;;;;;;;-145.63;48.84;39431.03;5001063;28;20220;-68
2023/10/24 10:14:27;;;;;;;10.25;7.95;;;;;;;-145.63;48.18;39352.81;5000059;28;20109;-71
2023/10/24 10:17:03;;;;;;;9.20;7.10;;;;;;;-145.63;48.73;39335.19;4987202;28;20026;-71
2023/10/24 10:19:58;;;;;;;9.15;7.43;;;;;;;-145.63;48.74;39386.06;5005253;28;20030;-69
2023/10/24 10:22:32;;;;;;;11.77;7.38;;;;;;;-145.63;49.06;39343.03;4990520;28;20045;-71
2023/10/24 10:25:07;;;;;;;11.98;7.70;;;;;;;-145.63;49.44;39360.63;5004783;28;20046;-71
2023/10/24 10:28:10;;;;;;;9.52;7.55;;;;;;;-145.63;49.05;39329.34;5004951;28;20101;-70
2023/10/24 10:30:46;;;;;;;10.63;7.65;;;;;;;-145.63;50.01;39366.50;4999179;28;20034;-68
2023/10/24 10:33:22;;;;;;;9.63;7.60;;;;;;;-145.63;49.65;39360.63;5002925;28;20027;-70
2023/10/24 10:36:05;;;;;;;11.40;7.88;;;;;;;-145.63;50.52;39374.31;4990038;28;20026;-71
2023/10/24 10:38:47;;;;;;;11.57;7.63;;;;;;;-145.63;50.12;39374.31;5012274;28;20046;-70
2023/10/24 10:41:22;;;;;;;;;;;;;;;-145.63;49.66;39352.81;5005365;28;20026;-73
2023/10/24 10:43:59;;;;;;;10.38;7.50;;;;;;;-145.63;49.54;39391.91;5004355;28;20137;-71
2023/10/24 10:46:30;;;;;;;10.18;6.93;;;;;;;-145.63;49.48;39364.53;5005114;28;20027;-74
2023/10/24 10:49:03;;;;;;;9.52;6.78;;;;;;;-145.63;50.29;39372.34;5004419;28;20030;-73
2023/10/24 10:51:33;;;;;;;7.22;6.40;;;;;;;-145.63;49.71;38601.84;5004412;28;20022;-71
2023/10/24 10:53:59;;;;;;;7.50;5.90;;;;;;;-145.63;49.72;39378.22;5004117;28;20081;-70
2023/10/24 10:56:31;;;;;;;9.70;6.57;;;;;;;-145.63;49.59;39391.91;5018516;28;20088;-70
2023/10/24 10:59:02;;;;;;;;;;;;;;;-145.63;49.82;39364.53;5022613;28;20030;-72
2023/10/24 11:01:50;;;;;;;8.73;6.50;;;;;;;-145.63;49.78;39360.63;5004827;28;19916;-71
2023/10/24 11:04:17;;;;;;;7.68;6.50;;;;;;;-145.63;49.91;39374.31;4984960;28;20038;-71
2023/10/24 11:06:54;;;;;;;7.75;5.97;;;;;;;-145.63;50.03;39384.09;4983707;28;20026;-72
2023/10/24 11:09:22;;;;;;;10.27;7.13;;;;;;;-145.63;50.70;39409.53;4986019;28;20034;-73
2023/10/24 11:12:27;;;;;;;8.00;5.80;;;;;;;-145.63;50.01;39354.75;4985260;28;20098;-71